Time;durP1;ratioP1;P1;durP2;ratioP2;P2;SDS_P1;SDS_P2;PMS_P1;PMS_P2;Temp;Humidity;BMP_temperature;BMP_pressure;BME280_temperature;BME280_humidity;BME280_pressure;Samples;Min_cycle;Max_cycle;Signal;HPM_P1;HPM_P2
2023/09/21 00:01:03;;;;;;;3.53;1.67;;;;;;;;;;4963966;28;20477;-80
2023/09/21 00:03:28;;;;;;;3.75;1.70;;;;;;;;;;4961697;28;20044;-81
2023/09/21 00:05:56;;;;;;;5.38;1.70;;;;;;;;;;4975255;28;20042;-80
2023/09/21 00:08:23;;;;;;;3.10;1.65;;;;;;;;;;4962724;28;20045;-80
2023/09/21 00:10:50;;;;;;;4.50;1.63;;;;;;;;;;4975306;28;20398;-80
2023/09/21 00:13:16;;;;;;;4.57;1.80;;;;;;;;;;4974116;28;20105;-80
2023/09/21 00:15:43;;;;;;;4.03;1.85;;;;;;;;;;4960054;28;20355;-80
2023/09/21 00:18:08;;;;;;;3.83;1.60;;;;;;;;;;4964233;28;20035;-81
2023/09/21 00:20:42;;;;;;;4.15;1.65;;;;;;;;;;4979035;28;21815;-81
2023/09/21 00:23:08;;;;;;;4.80;1.80;;;;;;;;;;4968571;28;20126;-80
2023/09/21 00:25:34;;;;;;;3.50;1.60;;;;;;;;;;4967614;28;20110;-80
2023/09/21 00:28:07;;;;;;;6.10;1.80;;;;;;;;;;4974415;28;20122;-80
2023/09/21 00:30:35;;;;;;;3.60;1.80;;;;;;;;;;4976994;28;20065;-80
2023/09/21 00:33:02;;;;;;;4.45;1.90;;;;;;;;;;4967374;28;20531;-81
2023/09/21 00:35:29;;;;;;;4.90;2.10;;;;;;;;;;4976194;28;20622;-80
2023/09/21 00:37:56;;;;;;;3.90;1.98;;;;;;;;;;4972888;28;20038;-79
2023/09/21 00:40:22;;;;;;;4.53;1.60;;;;;;;;;;4963009;28;20041;-80
2023/09/21 00:42:48;;;;;;;3.83;2.00;;;;;;;;;;4967020;28;20073;-80
2023/09/21 00:45:18;;;;;;;5.25;2.15;;;;;;;;;;4973197;28;20432;-78
2023/09/21 00:47:50;;;;;;;3.88;1.88;;;;;;;;;;4973712;28;20034;-79
2023/09/21 00:50:21;;;;;;;7.28;2.22;;;;;;;;;;4974671;28;20045;-80
2023/09/21 00:52:51;;;;;;;4.75;1.80;;;;;;;;;;4983180;28;20042;-78
2023/09/21 00:55:23;;;;;;;4.35;1.90;;;;;;;;;;4967490;28;20026;-79
2023/09/21 00:57:53;;;;;;;4.78;1.95;;;;;;;;;;4973052;28;20035;-79
2023/09/21 01:00:18;;;;;;;4.13;1.85;;;;;;;;;;4962265;28;20409;-79
2023/09/21 01:02:46;;;;;;;3.28;1.70;;;;;;;;;;4966783;28;20047;-80
2023/09/21 01:05:13;;;;;;;3.58;1.70;;;;;;;;;;4957188;28;20109;-79
2023/09/21 01:07:41;;;;;;;5.47;1.90;;;;;;;;;;4970805;28;20042;-79
2023/09/21 01:10:11;;;;;;;4.43;1.90;;;;;;;;;;4971109;28;20026;-79
2023/09/21 01:12:37;;;;;;;4.13;1.90;;;;;;;;;;4973022;28;20447;-78
2023/09/21 01:15:11;;;;;;;4.53;2.10;;;;;;;;;;4974302;28;20061;-80
2023/09/21 01:17:41;;;;;;;3.97;1.85;;;;;;;;;;4973396;28;20549;-80
2023/09/21 01:20:23;;;;;;;3.63;1.92;;;;;;;;;;4958273;28;20046;-81
2023/09/21 01:23:04;;;;;;;4.53;2.13;;;;;;;;;;4967597;28;20043;-80
2023/09/21 01:25:29;;;;;;;3.50;1.70;;;;;;;;;;4969290;28;20128;-81
2023/09/21 01:27:55;;;;;;;3.95;1.92;;;;;;;;;;4989525;28;20458;-82
2023/09/21 01:30:21;;;;;;;4.82;2.10;;;;;;;;;;4967034;28;20042;-80
2023/09/21 01:32:48;;;;;;;3.47;1.70;;;;;;;;;;4971627;28;20401;-79
2023/09/21 01:35:16;;;;;;;5.30;1.97;;;;;;;;;;4972603;28;20030;-79
2023/09/21 01:37:41;;;;;;;4.30;2.05;;;;;;;;;;4972852;28;20045;-79
2023/09/21 01:40:17;;;;;;;3.72;1.88;;;;;;;;;;4972173;28;20031;-79
2023/09/21 01:42:46;;;;;;;5.05;2.05;;;;;;;;;;4959800;28;20084;-79
2023/09/21 01:45:14;;;;;;;4.85;2.20;;;;;;;;;;4967367;28;20395;-79
2023/09/21 01:47:39;;;;;;;5.05;2.20;;;;;;;;;;4973237;28;20402;-79
2023/09/21 01:50:09;;;;;;;4.18;1.98;;;;;;;;;;4972071;28;20042;-80
2023/09/21 01:52:36;;;;;;;4.53;1.90;;;;;;;;;;4965902;28;20493;-79
2023/09/21 01:55:03;;;;;;;4.47;2.30;;;;;;;;;;4956183;28;20043;-80
2023/09/21 01:57:28;;;;;;;4.93;2.00;;;;;;;;;;4959610;28;20026;-80
2023/09/21 01:59:56;;;;;;;5.10;1.85;;;;;;;;;;4972416;28;20777;-79
2023/09/21 02:02:23;;;;;;;4.90;2.00;;;;;;;;;;4965311;28;20043;-79
2023/09/21 02:04:48;;;;;;;3.90;2.08;;;;;;;;;;4973089;28;20077;-79
2023/09/21 02:07:16;;;;;;;3.80;2.00;;;;;;;;;;4957763;28;20038;-79
2023/09/21 02:09:42;;;;;;;4.43;2.10;;;;;;;;;;4958865;28;20138;-80
2023/09/21 02:12:08;;;;;;;3.75;2.00;;;;;;;;;;4972549;28;20077;-79
2023/09/21 02:14:33;;;;;;;4.22;2.20;;;;;;;;;;4966268;28;20041;-79
2023/09/21 02:16:58;;;;;;;4.07;2.08;;;;;;;;;;4959040;28;20049;-79
2023/09/21 02:19:24;;;;;;;5.10;2.10;;;;;;;;;;4972298;28;20105;-79
2023/09/21 02:21:50;;;;;;;5.00;2.28;;;;;;;;;;4952091;28;20031;-80
2023/09/21 02:24:15;;;;;;;4.13;2.13;;;;;;;;;;4973845;28;20038;-79
2023/09/21 02:26:42;;;;;;;5.65;2.00;;;;;;;;;;4974265;28;20039;-79
2023/09/21 02:29:09;;;;;;;4.57;2.40;;;;;;;;;;4959321;28;20557;-79
2023/09/21 02:31:37;;;;;;;3.47;1.88;;;;;;;;;;4981791;28;20050;-79
2023/09/21 02:34:02;;;;;;;4.45;2.10;;;;;;;;;;4966770;28;20465;-80
2023/09/21 02:36:31;;;;;;;5.28;2.00;;;;;;;;;;4977692;28;20027;-79
2023/09/21 02:38:56;;;;;;;4.78;2.10;;;;;;;;;;4965693;28;20038;-79
2023/09/21 02:41:23;;;;;;;5.82;2.53;;;;;;;;;;4959845;28;20042;-79
2023/09/21 02:43:48;;;;;;;5.65;2.20;;;;;;;;;;4973474;28;20045;-80
2023/09/21 02:46:14;;;;;;;5.75;2.30;;;;;;;;;;4972975;28;20394;-80
2023/09/21 02:48:40;;;;;;;5.22;2.22;;;;;;;;;;4977425;28;20037;-80
2023/09/21 02:51:06;;;;;;;3.97;1.90;;;;;;;;;;4970752;28;21067;-79
2023/09/21 02:53:32;;;;;;;5.40;2.35;;;;;;;;;;4965992;28;20096;-79
2023/09/21 02:55:59;;;;;;;4.85;2.10;;;;;;;;;;4974971;28;20038;-79
2023/09/21 02:58:25;;;;;;;4.65;2.35;;;;;;;;;;4975532;28;20165;-80
2023/09/21 03:00:50;;;;;;;5.70;2.13;;;;;;;;;;4970648;28;20078;-79
2023/09/21 03:03:17;;;;;;;4.13;2.25;;;;;;;;;;4973077;28;20099;-80
2023/09/21 03:05:48;;;;;;;7.22;2.28;;;;;;;;;;4971009;28;20514;-80
2023/09/21 03:08:15;;;;;;;5.07;2.50;;;;;;;;;;4966150;28;20486;-79
2023/09/21 03:10:41;;;;;;;5.90;2.20;;;;;;;;;;4959635;28;20034;-80
2023/09/21 03:13:06;;;;;;;3.97;2.20;;;;;;;;;;4957546;28;20049;-79
2023/09/21 03:15:36;;;;;;;5.10;2.22;;;;;;;;;;4987758;28;20034;-80
2023/09/21 03:18:03;;;;;;;5.60;2.45;;;;;;;;;;4965123;28;20056;-79
2023/09/21 03:20:32;;;;;;;5.80;2.28;;;;;;;;;;4973791;28;20063;-80
2023/09/21 03:23:01;;;;;;;5.80;2.45;;;;;;;;;;4960692;28;20602;-79
2023/09/21 03:25:32;;;;;;;5.22;2.50;;;;;;;;;;4975030;28;20450;-80
2023/09/21 03:28:07;;;;;;;3.97;2.17;;;;;;;;;;4972245;28;20442;-79
2023/09/21 03:30:32;;;;;;;5.13;2.63;;;;;;;;;;4962145;28;20042;-80
2023/09/21 03:33:00;;;;;;;4.78;2.30;;;;;;;;;;4975076;28;20042;-79
2023/09/21 03:35:27;;;;;;;4.40;2.30;;;;;;;;;;4975786;28;20125;-80
2023/09/21 03:37:53;;;;;;;5.15;2.45;;;;;;;;;;4972430;28;20570;-80
2023/09/21 03:40:19;;;;;;;5.13;2.50;;;;;;;;;;4975953;28;20035;-79
2023/09/21 03:42:45;;;;;;;4.60;2.25;;;;;;;;;;4963160;28;20525;-83
2023/09/21 03:45:14;;;;;;;5.78;2.90;;;;;;;;;;4937464;28;20031;-84
2023/09/21 03:47:40;;;;;;;6.20;2.92;;;;;;;;;;4975669;28;20033;-83
2023/09/21 03:50:07;;;;;;;5.55;2.50;;;;;;;;;;4976429;28;20077;-83
2023/09/21 03:52:42;;;;;;;5.67;2.60;;;;;;;;;;4974747;28;20535;-84
2023/09/21 03:55:15;;;;;;;4.68;2.80;;;;;;;;;;4964961;28;20047;-84
2023/09/21 03:57:47;;;;;;;4.50;2.40;;;;;;;;;;4933949;28;20050;-84
2023/09/21 04:02:53;;;;;;;5.15;2.47;;;;;;;;;;4968810;28;20046;-84
2023/09/21 04:05:19;;;;;;;6.35;2.53;;;;;;;;;;4952397;28;20038;-84
2023/09/21 04:07:49;;;;;;;5.57;2.70;;;;;;;;;;4962333;28;20405;-85
2023/09/21 04:10:15;;;;;;;8.13;2.70;;;;;;;;;;4969429;28;20034;-84
2023/09/21 04:12:41;;;;;;;4.38;2.28;;;;;;;;;;4962134;28;20041;-84
2023/09/21 04:15:12;;;;;;;4.88;2.67;;;;;;;;;;4972689;28;20066;-85
2023/09/21 04:17:39;;;;;;;5.63;2.70;;;;;;;;;;4961960;28;20385;-85
2023/09/21 04:20:12;;;;;;;5.20;2.40;;;;;;;;;;4977225;28;20501;-84
2023/09/21 04:22:39;;;;;;;5.90;2.95;;;;;;;;;;4963505;28;20379;-84
2023/09/21 04:25:07;;;;;;;6.22;2.78;;;;;;;;;;4953417;28;20447;-84
2023/09/21 04:27:34;;;;;;;3.78;2.45;;;;;;;;;;4959554;28;20122;-83
2023/09/21 04:30:01;;;;;;;4.97;2.60;;;;;;;;;;4978124;28;20101;-83
2023/09/21 04:32:26;;;;;;;7.75;2.58;;;;;;;;;;4968107;28;20045;-83
2023/09/21 04:34:54;;;;;;;6.07;2.92;;;;;;;;;;4967531;28;20065;-84
2023/09/21 04:37:19;;;;;;;;;;;;;;;;;;4972610;28;20501;-84
2023/09/21 04:39:45;;;;;;;5.25;2.80;;;;;;;;;;4955059;28;19924;-81
2023/09/21 04:43:29;;;;;;;5.13;3.00;;;;;;;;;;5014913;27;20469;-82
2023/09/21 04:45:55;;;;;;;4.43;2.65;;;;;;;;;;4991114;28;20117;-81
2023/09/21 04:48:21;;;;;;;6.57;3.15;;;;;;;;;;5025499;28;20069;-81
2023/09/21 04:50:49;;;;;;;6.20;2.80;;;;;;;;;;4972124;28;20055;-82
2023/09/21 04:53:15;;;;;;;5.20;3.00;;;;;;;;;;4982983;28;20061;-82
2023/09/21 04:55:41;;;;;;;5.53;3.08;;;;;;;;;;5019284;28;20106;-83
2023/09/21 04:58:07;;;;;;;6.40;2.65;;;;;;;;;;5004978;28;20497;-78
2023/09/21 05:00:32;;;;;;;7.53;2.95;;;;;;;;;;4993792;28;20045;-78
2023/09/21 05:03:01;;;;;;;6.20;2.67;;;;;;;;;;5006137;28;20049;-78
2023/09/21 05:05:28;;;;;;;5.72;2.80;;;;;;;;;;5002026;28;20045;-78
2023/09/21 05:07:54;;;;;;;6.65;3.55;;;;;;;;;;4987599;28;20995;-78
2023/09/21 05:10:19;;;;;;;5.15;2.78;;;;;;;;;;4971727;28;20073;-77
2023/09/21 05:12:48;;;;;;;8.38;2.78;;;;;;;;;;4990094;28;20086;-78
2023/09/21 05:15:15;;;;;;;4.72;2.72;;;;;;;;;;4989620;28;20120;-78
2023/09/21 05:17:41;;;;;;;4.72;2.90;;;;;;;;;;5006793;28;20045;-78
2023/09/21 05:20:11;;;;;;;5.93;2.83;;;;;;;;;;4996257;28;20033;-78
2023/09/21 05:22:40;;;;;;;5.70;3.13;;;;;;;;;;4977406;28;20037;-78
2023/09/21 05:25:05;;;;;;;5.88;2.83;;;;;;;;;;4994442;28;20581;-78
2023/09/21 05:27:32;;;;;;;7.60;3.20;;;;;;;;;;5001536;28;20044;-78
2023/09/21 05:30:00;;;;;;;9.80;3.33;;;;;;;;;;4994264;28;20041;-80
2023/09/21 05:32:33;;;;;;;5.28;2.80;;;;;;;;;;5009801;28;20044;-78
2023/09/21 05:34:59;;;;;;;4.75;2.72;;;;;;;;;;4980868;28;20069;-77
2023/09/21 05:37:25;;;;;;;6.05;3.30;;;;;;;;;;4967750;28;20061;-78
2023/09/21 05:39:53;;;;;;;5.55;2.97;;;;;;;;;;4972831;28;20370;-77
2023/09/21 05:42:19;;;;;;;6.13;3.10;;;;;;;;;;4976044;28;20556;-77
2023/09/21 05:44:45;;;;;;;7.03;2.97;;;;;;;;;;4995207;28;20058;-77
2023/09/21 05:47:14;;;;;;;6.00;3.15;;;;;;;;;;5012179;28;20038;-78
2023/09/21 05:49:40;;;;;;;6.30;2.88;;;;;;;;;;5011955;28;20053;-77
2023/09/21 05:52:11;;;;;;;4.20;2.70;;;;;;;;;;4989292;28;20154;-78
2023/09/21 05:54:42;;;;;;;8.55;3.08;;;;;;;;;;4983220;28;20500;-79
2023/09/21 05:57:08;;;;;;;5.30;3.00;;;;;;;;;;4981365;28;20030;-76
2023/09/21 05:59:36;;;;;;;5.15;2.72;;;;;;;;;;4991269;28;20042;-78
2023/09/21 06:02:13;;;;;;;;;;;;;;;;;;4976878;28;20958;-77
2023/09/21 06:04:42;;;;;;;5.70;3.33;;;;;;;;;;4989243;28;19925;-77
2023/09/21 06:07:07;;;;;;;6.50;3.05;;;;;;;;;;4973158;28;20145;-79
2023/09/21 06:09:33;;;;;;;6.07;2.70;;;;;;;;;;4991216;28;20475;-79
2023/09/21 06:11:59;;;;;;;5.40;2.88;;;;;;;;;;4972547;28;20212;-77
2023/09/21 06:14:25;;;;;;;6.40;3.03;;;;;;;;;;4967335;28;20041;-79
2023/09/21 06:16:51;;;;;;;7.00;2.95;;;;;;;;;;4957506;28;20436;-78
2023/09/21 06:19:18;;;;;;;6.10;2.83;;;;;;;;;;4971304;28;20042;-78
2023/09/21 06:21:45;;;;;;;6.03;2.95;;;;;;;;;;4982523;28;20095;-78
2023/09/21 06:24:11;;;;;;;8.10;3.47;;;;;;;;;;4997457;28;20037;-78
2023/09/21 06:26:37;;;;;;;4.60;2.80;;;;;;;;;;4971021;28;20041;-79
2023/09/21 06:29:03;;;;;;;7.68;3.42;;;;;;;;;;4994726;28;20025;-79
2023/09/21 06:31:29;;;;;;;8.38;3.38;;;;;;;;;;4987664;28;20049;-78
2023/09/21 06:33:58;;;;;;;5.25;3.20;;;;;;;;;;4987933;28;20686;-77
2023/09/21 06:36:28;;;;;;;5.13;2.60;;;;;;;;;;4980327;28;20492;-78
2023/09/21 06:38:55;;;;;;;7.18;2.65;;;;;;;;;;4985606;28;20042;-78
2023/09/21 06:41:21;;;;;;;6.75;3.05;;;;;;;;;;4966672;28;20523;-78
2023/09/21 06:43:47;;;;;;;5.70;2.58;;;;;;;;;;4959272;28;20566;-79
2023/09/21 06:46:13;;;;;;;6.15;3.00;;;;;;;;;;4956951;28;20040;-78
2023/09/21 06:48:41;;;;;;;6.63;2.65;;;;;;;;;;4951849;28;20038;-77
2023/09/21 06:51:10;;;;;;;7.85;2.63;;;;;;;;;;4953484;28;20049;-78
2023/09/21 06:53:36;;;;;;;6.22;2.60;;;;;;;;;;4968320;28;21011;-78
2023/09/21 06:56:02;;;;;;;7.53;2.50;;;;;;;;;;4971168;28;20070;-78
2023/09/21 06:58:30;;;;;;;5.20;2.35;;;;;;;;;;4959342;28;20042;-78
2023/09/21 07:00:59;;;;;;;5.40;2.10;;;;;;;;;;4969801;28;20026;-80
2023/09/21 07:03:25;;;;;;;4.97;2.38;;;;;;;;;;4969474;28;20042;-77
2023/09/21 07:05:51;;;;;;;7.97;2.45;;;;;;;;;;4956104;28;20050;-79
2023/09/21 07:08:16;;;;;;;5.03;2.05;;;;;;;;;;4968883;28;20062;-78
2023/09/21 07:10:45;;;;;;;5.15;1.80;;;;;;;;;;4959231;28;20060;-78
2023/09/21 07:13:11;;;;;;;5.70;2.00;;;;;;;;;;4990272;28;20421;-78
2023/09/21 07:15:40;;;;;;;4.03;1.88;;;;;;;;;;4989035;28;20038;-78
2023/09/21 07:18:06;;;;;;;4.45;1.70;;;;;;;;;;4972057;28;20513;-79
2023/09/21 07:20:32;;;;;;;3.60;1.83;;;;;;;;;;4971658;28;20038;-78
2023/09/21 07:22:57;;;;;;;4.78;1.92;;;;;;;;;;4971716;28;20514;-78
2023/09/21 07:25:24;;;;;;;3.58;1.88;;;;;;;;;;4983004;28;20066;-76
2023/09/21 07:27:54;;;;;;;5.68;1.85;;;;;;;;;;4972863;28;20050;-78
2023/09/21 07:30:20;;;;;;;5.10;1.85;;;;;;;;;;4970169;28;20435;-78
2023/09/21 07:32:46;;;;;;;6.00;1.92;;;;;;;;;;4974125;28;20489;-78
2023/09/21 07:35:14;;;;;;;3.92;1.73;;;;;;;;;;4983304;28;20031;-78
2023/09/21 07:37:39;;;;;;;4.07;1.80;;;;;;;;;;4989003;28;20034;-78
2023/09/21 07:40:06;;;;;;;5.43;1.80;;;;;;;;;;4952856;28;20435;-78
2023/09/21 07:42:36;;;;;;;4.90;1.75;;;;;;;;;;4981912;28;20520;-77
2023/09/21 07:45:01;;;;;;;3.85;1.63;;;;;;;;;;4979501;28;20042;-79
2023/09/21 07:47:27;;;;;;;4.60;1.60;;;;;;;;;;4985746;28;20457;-78
2023/09/21 07:49:55;;;;;;;2.97;1.65;;;;;;;;;;4969080;28;20034;-78
2023/09/21 07:52:23;;;;;;;5.38;1.80;;;;;;;;;;4980028;28;20046;-78
2023/09/21 07:54:49;;;;;;;4.63;1.65;;;;;;;;;;4983304;28;20034;-78
2023/09/21 07:57:16;;;;;;;4.97;2.10;;;;;;;;;;4979267;28;20030;-78
2023/09/21 07:59:42;;;;;;;4.80;1.58;;;;;;;;;;4991125;28;20030;-79
2023/09/21 08:02:09;;;;;;;4.53;1.77;;;;;;;;;;4983929;28;20473;-78
2023/09/21 08:04:34;;;;;;;4.75;1.58;;;;;;;;;;4971040;28;20465;-78
2023/09/21 08:07:00;;;;;;;3.10;1.55;;;;;;;;;;4982565;28;20060;-79
2023/09/21 08:09:26;;;;;;;3.72;1.63;;;;;;;;;;4984461;28;20138;-79
2023/09/21 08:11:51;;;;;;;3.70;1.63;;;;;;;;;;4988187;28;20479;-79
2023/09/21 08:14:17;;;;;;;6.05;1.80;;;;;;;;;;4986993;28;20499;-79
2023/09/21 08:16:42;;;;;;;5.40;1.63;;;;;;;;;;4983678;28;20109;-79
2023/09/21 08:19:08;;;;;;;3.65;1.40;;;;;;;;;;4981413;28;20564;-79
2023/09/21 08:21:33;;;;;;;3.45;1.52;;;;;;;;;;4984824;28;20046;-79
2023/09/21 08:23:59;;;;;;;5.93;1.42;;;;;;;;;;4984643;28;20097;-79
2023/09/21 08:26:25;;;;;;;5.13;1.50;;;;;;;;;;4984635;28;20455;-79
2023/09/21 08:28:52;;;;;;;4.10;1.35;;;;;;;;;;4978905;28;20041;-79
2023/09/21 08:31:19;;;;;;;4.13;1.70;;;;;;;;;;4969611;28;20038;-77
2023/09/21 08:33:45;;;;;;;2.83;1.05;;;;;;;;;;4983325;28;20035;-77
2023/09/21 08:36:11;;;;;;;4.28;1.60;;;;;;;;;;4968974;28;20864;-79
2023/09/21 08:38:37;;;;;;;3.22;1.48;;;;;;;;;;4985400;28;20038;-79
2023/09/21 08:41:03;;;;;;;3.20;1.00;;;;;;;;;;4967561;28;20037;-79
2023/09/21 08:43:33;;;;;;;4.32;1.30;;;;;;;;;;4958184;28;20127;-78
2023/09/21 08:45:59;;;;;;;3.10;1.20;;;;;;;;;;4961210;28;20033;-78
2023/09/21 08:48:26;;;;;;;3.22;1.10;;;;;;;;;;4955127;28;20042;-78
2023/09/21 08:50:52;;;;;;;3.83;1.30;;;;;;;;;;4957842;28;20380;-77
2023/09/21 08:53:20;;;;;;;5.30;1.20;;;;;;;;;;4969032;28;20039;-78
2023/09/21 08:55:52;;;;;;;2.75;1.30;;;;;;;;;;4956328;28;20490;-78
2023/09/21 08:58:23;;;;;;;3.42;0.90;;;;;;;;;;4972778;28;20042;-78
2023/09/21 09:00:51;;;;;;;6.82;1.20;;;;;;;;;;4970815;28;20105;-78
2023/09/21 09:03:19;;;;;;;6.97;1.45;;;;;;;;;;4970639;28;20042;-79
2023/09/21 09:05:46;;;;;;;2.42;0.93;;;;;;;;;;4980382;28;20145;-79
2023/09/21 09:08:12;;;;;;;2.63;0.98;;;;;;;;;;4974037;28;20034;-78
2023/09/21 09:10:41;;;;;;;3.67;1.30;;;;;;;;;;5005079;28;20038;-79
2023/09/21 09:13:07;;;;;;;2.95;1.02;;;;;;;;;;4974700;28;20493;-77
2023/09/21 09:15:45;;;;;;;3.05;1.00;;;;;;;;;;4984420;28;20165;-79
2023/09/21 09:18:11;;;;;;;5.38;0.98;;;;;;;;;;4987443;28;20029;-79
2023/09/21 09:20:37;;;;;;;3.58;0.90;;;;;;;;;;4971750;28;20486;-79
2023/09/21 09:23:10;;;;;;;3.40;1.00;;;;;;;;;;4956759;28;20200;-78
2023/09/21 09:25:36;;;;;;;3.58;0.98;;;;;;;;;;4968181;28;20038;-78
2023/09/21 09:28:03;;;;;;;;;;;;;;;;;;4964586;28;20036;-79
2023/09/21 09:30:28;;;;;;;4.43;1.38;;;;;;;;;;4955226;28;19918;-78
2023/09/21 09:32:55;;;;;;;2.47;0.95;;;;;;;;;;4973939;28;20046;-78
2023/09/21 09:35:21;;;;;;;2.38;1.05;;;;;;;;;;4962039;28;20050;-78
2023/09/21 09:37:49;;;;;;;2.40;1.13;;;;;;;;;;4974540;28;20030;-78
2023/09/21 09:40:24;;;;;;;6.15;1.20;;;;;;;;;;4973973;28;20458;-78
2023/09/21 09:42:53;;;;;;;4.45;1.10;;;;;;;;;;4985977;28;20409;-77
2023/09/21 09:45:24;;;;;;;3.03;1.23;;;;;;;;;;5008903;28;20045;-78
2023/09/21 09:47:57;;;;;;;5.80;1.25;;;;;;;;;;5004215;28;20387;-77
2023/09/21 09:50:33;;;;;;;2.13;1.00;;;;;;;;;;5007814;28;20478;-78
2023/09/21 09:53:06;;;;;;;3.40;1.27;;;;;;;;;;4998903;28;20660;-77
2023/09/21 09:55:33;;;;;;;3.63;1.20;;;;;;;;;;4993899;28;20039;-78
2023/09/21 09:57:59;;;;;;;3.72;1.30;;;;;;;;;;5006400;28;20127;-78
2023/09/21 10:00:29;;;;;;;5.13;1.10;;;;;;;;;;5011695;28;20128;-78
2023/09/21 10:02:56;;;;;;;2.60;1.30;;;;;;;;;;4997075;28;20281;-78
2023/09/21 10:05:24;;;;;;;3.85;1.25;;;;;;;;;;4993758;28;20037;-78
2023/09/21 10:07:49;;;;;;;;;;;;;;;;;;4988414;28;20493;-78
2023/09/21 10:10:20;;;;;;;2.83;1.20;;;;;;;;;;4996354;28;20009;-78
2023/09/21 10:12:49;;;;;;;4.05;1.20;;;;;;;;;;4991069;28;20038;-79
2023/09/21 10:15:15;;;;;;;3.55;1.10;;;;;;;;;;4992898;28;20035;-78
2023/09/21 10:17:42;;;;;;;4.68;1.42;;;;;;;;;;4996378;28;20037;-78
2023/09/21 10:20:14;;;;;;;4.07;1.40;;;;;;;;;;4989501;28;20117;-78
2023/09/21 10:22:44;;;;;;;2.55;0.90;;;;;;;;;;5009342;28;20033;-77
2023/09/21 10:25:11;;;;;;;4.90;1.20;;;;;;;;;;5009470;28;20490;-78
2023/09/21 10:27:46;;;;;;;4.32;1.00;;;;;;;;;;4998740;28;20533;-78
2023/09/21 10:30:15;;;;;;;3.47;1.20;;;;;;;;;;4991198;28;20034;-78
2023/09/21 10:32:48;;;;;;;2.65;0.98;;;;;;;;;;5010824;28;20505;-80
2023/09/21 10:35:44;;;;;;;2.65;1.00;;;;;;;;;;4992563;28;20046;-78
2023/09/21 10:38:14;;;;;;;1.85;0.82;;;;;;;;;;4977788;28;20042;-79
2023/09/21 10:40:40;;;;;;;2.65;1.20;;;;;;;;;;4974082;28;20038;-78
2023/09/21 10:43:37;;;;;;;2.67;1.00;;;;;;;;;;4998574;28;20053;-79
2023/09/21 10:46:06;;;;;;;2.92;1.30;;;;;;;;;;4985219;28;20062;-79
2023/09/21 10:48:32;;;;;;;3.75;1.00;;;;;;;;;;4989381;28;20042;-80
2023/09/21 10:50:57;;;;;;;2.67;1.00;;;;;;;;;;4972117;28;20038;-79
2023/09/21 10:53:23;;;;;;;2.83;1.00;;;;;;;;;;4977848;28;20038;-80
2023/09/21 10:55:49;;;;;;;2.60;1.00;;;;;;;;;;4976579;28;20042;-78
2023/09/21 10:58:17;;;;;;;2.67;1.00;;;;;;;;;;4970584;28;20038;-79
2023/09/21 11:00:43;;;;;;;1.90;0.70;;;;;;;;;;4988357;28;20162;-78
2023/09/21 11:03:11;;;;;;;4.43;1.00;;;;;;;;;;4999390;28;20086;-77
2023/09/21 11:05:37;;;;;;;3.03;1.20;;;;;;;;;;4997121;28;20647;-78
2023/09/21 11:08:03;;;;;;;3.75;1.00;;;;;;;;;;5003040;28;20045;-78
2023/09/21 11:10:28;;;;;;;5.00;1.60;;;;;;;;;;4976044;28;20460;-77
2023/09/21 11:12:54;;;;;;;2.30;0.90;;;;;;;;;;4981262;28;20060;-78
2023/09/21 11:15:20;;;;;;;1.95;0.90;;;;;;;;;;4968060;28;20074;-79
2023/09/21 11:17:46;;;;;;;2.58;0.90;;;;;;;;;;4973675;28;20823;-78
2023/09/21 11:20:15;;;;;;;2.13;0.73;;;;;;;;;;4987277;28;20434;-79
2023/09/21 11:22:45;;;;;;;2.97;1.20;;;;;;;;;;4990487;28;20034;-76
2023/09/21 11:25:11;;;;;;;3.47;0.90;;;;;;;;;;4979580;28;20449;-79
2023/09/21 11:27:39;;;;;;;1.77;0.75;;;;;;;;;;4975540;28;20042;-79
2023/09/21 11:30:07;;;;;;;2.42;0.70;;;;;;;;;;4975419;28;20091;-78
2023/09/21 11:32:40;;;;;;;1.50;0.70;;;;;;;;;;4994665;28;20034;-79
2023/09/21 11:35:07;;;;;;;2.92;0.88;;;;;;;;;;4974104;28;20121;-79
2023/09/21 11:37:32;;;;;;;3.70;0.70;;;;;;;;;;4992706;28;20042;-80
2023/09/21 11:39:58;;;;;;;1.77;0.70;;;;;;;;;;4978472;28;20108;-79
2023/09/21 11:42:25;;;;;;;3.80;0.83;;;;;;;;;;4999449;28;20042;-78
2023/09/21 11:44:50;;;;;;;2.28;0.70;;;;;;;;;;4984683;28;20033;-78
2023/09/21 11:47:22;;;;;;;2.50;0.80;;;;;;;;;;4984453;28;20498;-79
2023/09/21 11:49:52;;;;;;;3.33;0.95;;;;;;;;;;5009458;28;20109;-79
2023/09/21 11:52:18;;;;;;;2.30;0.80;;;;;;;;;;4997807;28;20034;-77
2023/09/21 11:54:43;;;;;;;3.53;0.70;;;;;;;;;;4980344;28;20555;-78
2023/09/21 11:57:09;;;;;;;2.87;1.00;;;;;;;;;;4982471;28;20088;-78
2023/09/21 11:59:42;;;;;;;2.22;1.00;;;;;;;;;;4997077;28;20379;-78
2023/09/21 12:02:16;;;;;;;3.35;0.80;;;;;;;;;;4979199;28;20046;-79
2023/09/21 12:04:42;;;;;;;5.38;0.90;;;;;;;;;;4986531;28;20052;-78
2023/09/21 12:07:11;;;;;;;2.25;0.80;;;;;;;;;;4987348;28;20042;-79
2023/09/21 12:09:40;;;;;;;2.58;1.00;;;;;;;;;;4972728;28;20096;-78
2023/09/21 12:12:07;;;;;;;2.28;0.90;;;;;;;;;;4986177;28;20034;-79
2023/09/21 12:14:34;;;;;;;3.47;1.00;;;;;;;;;;4968412;28;20946;-79
2023/09/21 12:17:19;;;;;;;5.82;1.08;;;;;;;;;;4977439;28;20044;-79
2023/09/21 12:19:45;;;;;;;3.33;0.90;;;;;;;;;;4987439;28;20054;-78
2023/09/21 12:22:12;;;;;;;3.88;0.95;;;;;;;;;;5002532;28;20065;-78
2023/09/21 12:24:46;;;;;;;2.13;0.93;;;;;;;;;;5008901;28;20068;-78
2023/09/21 12:27:13;;;;;;;3.20;1.10;;;;;;;;;;4985651;28;20066;-78
2023/09/21 12:29:38;;;;;;;2.40;0.98;;;;;;;;;;5005132;28;20125;-78
2023/09/21 12:32:04;;;;;;;4.00;1.00;;;;;;;;;;4990078;28;20136;-78
2023/09/21 12:34:31;;;;;;;2.20;0.90;;;;;;;;;;4990508;28;20049;-78
2023/09/21 12:37:11;;;;;;;2.65;1.10;;;;;;;;;;5006651;28;20029;-78
2023/09/21 12:39:38;;;;;;;3.83;1.00;;;;;;;;;;4990396;28;20047;-78
2023/09/21 12:42:04;;;;;;;2.83;0.90;;;;;;;;;;5002951;28;20075;-79
2023/09/21 12:44:30;;;;;;;3.45;1.10;;;;;;;;;;5004608;28;20095;-80
2023/09/21 12:46:55;;;;;;;3.63;1.00;;;;;;;;;;4990201;28;20384;-78
2023/09/21 12:49:21;;;;;;;2.50;0.98;;;;;;;;;;4990904;28;20196;-79
2023/09/21 12:51:49;;;;;;;3.42;1.15;;;;;;;;;;4991268;28;20034;-79
2023/09/21 12:54:15;;;;;;;2.15;0.93;;;;;;;;;;4961629;28;20096;-77
2023/09/21 12:56:40;;;;;;;2.85;0.90;;;;;;;;;;5000991;28;20041;-79
2023/09/21 12:59:07;;;;;;;2.75;0.90;;;;;;;;;;4991646;28;20525;-78
2023/09/21 13:01:32;;;;;;;2.30;0.90;;;;;;;;;;4982908;28;20107;-79
2023/09/21 13:03:59;;;;;;;3.35;1.00;;;;;;;;;;4989107;28;20030;-78
2023/09/21 13:06:25;;;;;;;2.50;1.00;;;;;;;;;;5002212;28;20038;-78
2023/09/21 13:08:50;;;;;;;3.65;1.10;;;;;;;;;;4998750;28;20038;-78
2023/09/21 13:11:17;;;;;;;2.60;1.00;;;;;;;;;;4966690;28;20482;-78
2023/09/21 13:13:42;;;;;;;2.75;1.00;;;;;;;;;;4973177;28;20082;-78
2023/09/21 13:16:08;;;;;;;2.78;1.00;;;;;;;;;;4987412;28;20098;-79
2023/09/21 13:18:40;;;;;;;3.05;1.00;;;;;;;;;;4993840;28;20144;-78
2023/09/21 13:21:07;;;;;;;3.22;0.80;;;;;;;;;;4984815;28;20046;-79
2023/09/21 13:23:34;;;;;;;3.22;1.00;;;;;;;;;;4988131;28;20049;-78
2023/09/21 13:26:01;;;;;;;2.57;0.90;;;;;;;;;;4988790;28;20045;-79
2023/09/21 13:28:26;;;;;;;5.00;1.10;;;;;;;;;;4991408;28;20239;-79
2023/09/21 13:30:52;;;;;;;3.70;1.10;;;;;;;;;;4986433;28;20151;-78
2023/09/21 13:33:18;;;;;;;2.22;1.00;;;;;;;;;;4992467;28;20462;-79
2023/09/21 13:35:44;;;;;;;3.33;0.90;;;;;;;;;;4991962;28;20120;-78
2023/09/21 13:38:12;;;;;;;2.78;1.20;;;;;;;;;;4973871;28;20432;-78
2023/09/21 13:40:38;;;;;;;3.03;1.10;;;;;;;;;;4996984;28;20044;-79
2023/09/21 13:43:04;;;;;;;3.58;1.00;;;;;;;;;;4995535;28;20042;-79
2023/09/21 13:45:29;;;;;;;2.10;0.80;;;;;;;;;;4988076;28;20401;-79
2023/09/21 13:47:55;;;;;;;2.35;0.90;;;;;;;;;;4961739;28;20042;-78
2023/09/21 13:50:20;;;;;;;2.38;0.90;;;;;;;;;;4970636;28;20042;-78
2023/09/21 13:52:46;;;;;;;3.03;1.05;;;;;;;;;;4976869;28;20031;-78
2023/09/21 13:55:11;;;;;;;4.18;1.20;;;;;;;;;;4956188;28;20038;-78
2023/09/21 13:57:38;;;;;;;2.38;0.80;;;;;;;;;;4974967;28;20042;-78
2023/09/21 14:00:07;;;;;;;2.65;1.00;;;;;;;;;;4970964;28;20042;-78
2023/09/21 14:02:39;;;;;;;2.47;1.10;;;;;;;;;;4964964;28;20089;-78
2023/09/21 14:05:06;;;;;;;3.88;1.10;;;;;;;;;;4971683;28;20535;-78
2023/09/21 14:07:31;;;;;;;3.33;0.90;;;;;;;;;;4969426;28;20038;-78
2023/09/21 14:09:57;;;;;;;3.90;0.80;;;;;;;;;;4973096;28;20053;-79
2023/09/21 14:12:23;;;;;;;2.47;1.00;;;;;;;;;;4990931;28;20034;-78
2023/09/21 14:14:48;;;;;;;2.80;0.93;;;;;;;;;;4960937;28;20109;-78
2023/09/21 14:17:14;;;;;;;2.95;0.93;;;;;;;;;;4982978;28;20434;-80
2023/09/21 14:19:40;;;;;;;4.15;0.90;;;;;;;;;;4954350;28;20034;-79
2023/09/21 14:22:06;;;;;;;3.17;1.02;;;;;;;;;;4967868;28;20039;-78
2023/09/21 14:24:32;;;;;;;2.53;1.00;;;;;;;;;;4955249;28;20045;-78
2023/09/21 14:26:57;;;;;;;2.28;0.90;;;;;;;;;;4957065;28;20073;-78
2023/09/21 14:29:23;;;;;;;2.35;0.90;;;;;;;;;;4967263;28;20055;-77
2023/09/21 14:31:49;;;;;;;2.40;1.05;;;;;;;;;;4970298;28;20030;-77
2023/09/21 14:34:14;;;;;;;3.00;0.88;;;;;;;;;;4956733;28;20491;-78
2023/09/21 14:36:40;;;;;;;3.28;1.00;;;;;;;;;;4979657;28;20112;-78
2023/09/21 14:39:05;;;;;;;5.80;1.10;;;;;;;;;;4985887;28;20037;-79
2023/09/21 14:41:32;;;;;;;2.67;0.90;;;;;;;;;;4965908;28;20065;-79
2023/09/21 14:43:57;;;;;;;4.90;1.00;;;;;;;;;;4981149;28;20066;-79
2023/09/21 14:46:23;;;;;;;3.65;1.00;;;;;;;;;;4991336;28;20149;-79
2023/09/21 14:48:48;;;;;;;3.00;0.90;;;;;;;;;;5005140;28;20030;-78